sensor_id;sensor_type;location;lat;lon;timestamp;P1;durP1;ratioP1;P2;durP2;ratioP2
34695;SDS011;75243;51.138;17.370;2024-01-27T00:00:48;8.50;;;2.70;;
34695;SDS011;75243;51.138;17.370;2024-01-27T00:03:53;13.40;;;3.30;;
34695;SDS011;75243;51.138;17.370;2024-01-27T00:09:57;12.90;;;2.40;;
34695;SDS011;75243;51.138;17.370;2024-01-27T00:12:59;8.10;;;2.40;;
34695;SDS011;75243;51.138;17.370;2024-01-27T00:19:01;10.10;;;3.00;;
34695;SDS011;75243;51.138;17.370;2024-01-27T00:22:06;11.00;;;2.40;;
34695;SDS011;75243;51.138;17.370;2024-01-27T00:25:06;8.70;;;2.20;;
34695;SDS011;75243;51.138;17.370;2024-01-27T00:28:07;7.30;;;2.20;;
34695;SDS011;75243;51.138;17.370;2024-01-27T00:31:08;17.50;;;3.00;;
34695;SDS011;75243;51.138;17.370;2024-01-27T00:34:08;13.10;;;2.50;;
34695;SDS011;75243;51.138;17.370;2024-01-27T00:37:09;11.40;;;2.60;;
34695;SDS011;75243;51.138;17.370;2024-01-27T00:40:10;10.20;;;2.00;;
34695;SDS011;75243;51.138;17.370;2024-01-27T00:43:11;11.50;;;2.60;;
34695;SDS011;75243;51.138;17.370;2024-01-27T00:46:12;10.40;;;2.40;;
34695;SDS011;75243;51.138;17.370;2024-01-27T00:49:12;11.00;;;2.50;;
34695;SDS011;75243;51.138;17.370;2024-01-27T00:52:13;8.80;;;2.30;;
34695;SDS011;75243;51.138;17.370;2024-01-27T00:55:14;12.60;;;3.10;;
34695;SDS011;75243;51.138;17.370;2024-01-27T00:58:14;9.60;;;2.30;;
34695;SDS011;75243;51.138;17.370;2024-01-27T01:04:16;8.10;;;2.60;;
34695;SDS011;75243;51.138;17.370;2024-01-27T01:07:17;14.30;;;3.30;;
34695;SDS011;75243;51.138;17.370;2024-01-27T01:10:17;12.30;;;3.30;;
34695;SDS011;75243;51.138;17.370;2024-01-27T01:16:19;7.00;;;2.50;;
34695;SDS011;75243;51.138;17.370;2024-01-27T01:19:19;15.40;;;2.90;;
34695;SDS011;75243;51.138;17.370;2024-01-27T01:22:23;10.50;;;2.40;;
34695;SDS011;75243;51.138;17.370;2024-01-27T01:25:27;11.50;;;2.70;;
34695;SDS011;75243;51.138;17.370;2024-01-27T01:28:28;12.00;;;3.10;;
34695;SDS011;75243;51.138;17.370;2024-01-27T01:31:28;10.40;;;2.80;;
34695;SDS011;75243;51.138;17.370;2024-01-27T01:37:30;7.60;;;2.50;;
34695;SDS011;75243;51.138;17.370;2024-01-27T01:40:31;11.30;;;2.50;;
34695;SDS011;75243;51.138;17.370;2024-01-27T01:46:33;11.40;;;2.80;;
34695;SDS011;75243;51.138;17.370;2024-01-27T01:49:35;14.80;;;2.60;;
34695;SDS011;75243;51.138;17.370;2024-01-27T01:52:36;11.60;;;2.10;;
34695;SDS011;75243;51.138;17.370;2024-01-27T01:55:38;14.20;;;3.20;;
34695;SDS011;75243;51.138;17.370;2024-01-27T01:58:40;14.70;;;2.90;;
34695;SDS011;75243;51.138;17.370;2024-01-27T02:01:41;12.50;;;2.70;;
34695;SDS011;75243;51.138;17.370;2024-01-27T02:04:42;8.00;;;2.20;;
34695;SDS011;75243;51.138;17.370;2024-01-27T02:07:49;9.50;;;2.90;;
34695;SDS011;75243;51.138;17.370;2024-01-27T02:10:50;9.40;;;2.50;;
34695;SDS011;75243;51.138;17.370;2024-01-27T02:16:51;13.50;;;2.90;;
34695;SDS011;75243;51.138;17.370;2024-01-27T02:19:52;10.20;;;2.90;;
34695;SDS011;75243;51.138;17.370;2024-01-27T02:22:53;10.90;;;2.60;;
34695;SDS011;75243;51.138;17.370;2024-01-27T02:25:54;13.10;;;3.10;;
34695;SDS011;75243;51.138;17.370;2024-01-27T02:28:55;9.50;;;2.40;;
34695;SDS011;75243;51.138;17.370;2024-01-27T02:34:56;9.00;;;2.60;;
34695;SDS011;75243;51.138;17.370;2024-01-27T02:40:57;10.30;;;2.30;;
34695;SDS011;75243;51.138;17.370;2024-01-27T02:43:58;11.30;;;3.20;;
34695;SDS011;75243;51.138;17.370;2024-01-27T02:50:03;13.00;;;2.70;;
34695;SDS011;75243;51.138;17.370;2024-01-27T02:53:06;7.80;;;2.10;;
34695;SDS011;75243;51.138;17.370;2024-01-27T02:59:09;6.60;;;2.40;;
34695;SDS011;75243;51.138;17.370;2024-01-27T03:02:11;10.50;;;2.70;;
34695;SDS011;75243;51.138;17.370;2024-01-27T03:05:12;16.20;;;3.40;;
34695;SDS011;75243;51.138;17.370;2024-01-27T03:08:14;11.80;;;2.50;;
34695;SDS011;75243;51.138;17.370;2024-01-27T03:14:15;8.00;;;2.20;;
34695;SDS011;75243;51.138;17.370;2024-01-27T03:17:16;16.00;;;3.10;;
34695;SDS011;75243;51.138;17.370;2024-01-27T03:20:16;9.00;;;2.40;;
34695;SDS011;75243;51.138;17.370;2024-01-27T03:26:18;13.80;;;2.70;;
34695;SDS011;75243;51.138;17.370;2024-01-27T03:29:19;9.40;;;2.80;;
34695;SDS011;75243;51.138;17.370;2024-01-27T03:35:20;13.00;;;2.90;;
34695;SDS011;75243;51.138;17.370;2024-01-27T03:41:21;11.90;;;3.20;;
34695;SDS011;75243;51.138;17.370;2024-01-27T03:44:22;13.20;;;2.80;;
34695;SDS011;75243;51.138;17.370;2024-01-27T03:47:23;15.80;;;3.00;;
34695;SDS011;75243;51.138;17.370;2024-01-27T03:50:24;17.90;;;2.80;;
34695;SDS011;75243;51.138;17.370;2024-01-27T03:53:25;15.00;;;2.60;;
34695;SDS011;75243;51.138;17.370;2024-01-27T03:56:25;15.00;;;2.70;;
34695;SDS011;75243;51.138;17.370;2024-01-27T04:02:29;13.70;;;3.70;;
34695;SDS011;75243;51.138;17.370;2024-01-27T04:05:30;12.10;;;2.90;;
34695;SDS011;75243;51.138;17.370;2024-01-27T04:08:34;11.80;;;2.50;;
34695;SDS011;75243;51.138;17.370;2024-01-27T04:11:35;6.70;;;2.30;;
34695;SDS011;75243;51.138;17.370;2024-01-27T04:14:38;12.70;;;3.00;;
34695;SDS011;75243;51.138;17.370;2024-01-27T04:18:17;11.10;;;2.60;;
34695;SDS011;75243;51.138;17.370;2024-01-27T04:21:21;10.60;;;2.70;;
34695;SDS011;75243;51.138;17.370;2024-01-27T04:27:22;11.80;;;3.40;;
34695;SDS011;75243;51.138;17.370;2024-01-27T04:33:28;7.90;;;2.80;;
34695;SDS011;75243;51.138;17.370;2024-01-27T04:39:35;12.70;;;2.20;;
34695;SDS011;75243;51.138;17.370;2024-01-27T04:42:38;14.10;;;2.70;;
34695;SDS011;75243;51.138;17.370;2024-01-27T04:45:39;10.30;;;3.00;;
34695;SDS011;75243;51.138;17.370;2024-01-27T04:48:43;12.10;;;2.70;;
34695;SDS011;75243;51.138;17.370;2024-01-27T04:54:44;11.30;;;2.90;;
34695;SDS011;75243;51.138;17.370;2024-01-27T05:00:46;14.40;;;3.30;;
34695;SDS011;75243;51.138;17.370;2024-01-27T05:03:49;12.80;;;2.60;;
34695;SDS011;75243;51.138;17.370;2024-01-27T05:06:50;15.50;;;2.90;;
34695;SDS011;75243;51.138;17.370;2024-01-27T05:09:50;15.60;;;3.50;;
34695;SDS011;75243;51.138;17.370;2024-01-27T05:12:51;10.30;;;2.50;;
34695;SDS011;75243;51.138;17.370;2024-01-27T05:15:52;13.40;;;2.70;;
34695;SDS011;75243;51.138;17.370;2024-01-27T05:18:53;10.50;;;2.00;;
34695;SDS011;75243;51.138;17.370;2024-01-27T05:21:54;9.30;;;2.10;;
34695;SDS011;75243;51.138;17.370;2024-01-27T05:24:55;15.30;;;3.10;;
34695;SDS011;75243;51.138;17.370;2024-01-27T05:30:56;15.70;;;2.90;;
34695;SDS011;75243;51.138;17.370;2024-01-27T05:37:01;11.90;;;2.70;;
34695;SDS011;75243;51.138;17.370;2024-01-27T05:40:02;12.20;;;2.70;;
34695;SDS011;75243;51.138;17.370;2024-01-27T05:43:04;12.70;;;2.90;;
34695;SDS011;75243;51.138;17.370;2024-01-27T05:46:05;9.90;;;2.60;;
34695;SDS011;75243;51.138;17.370;2024-01-27T05:52:06;10.80;;;2.40;;
34695;SDS011;75243;51.138;17.370;2024-01-27T05:55:07;10.90;;;2.60;;
34695;SDS011;75243;51.138;17.370;2024-01-27T05:58:08;7.70;;;2.50;;
34695;SDS011;75243;51.138;17.370;2024-01-27T06:04:10;14.70;;;2.80;;
34695;SDS011;75243;51.138;17.370;2024-01-27T06:07:14;16.60;;;3.20;;
34695;SDS011;75243;51.138;17.370;2024-01-27T06:13:15;13.40;;;2.80;;
34695;SDS011;75243;51.138;17.370;2024-01-27T06:19:20;15.60;;;2.40;;
34695;SDS011;75243;51.138;17.370;2024-01-27T06:25:42;9.50;;;2.60;;
34695;SDS011;75243;51.138;17.370;2024-01-27T06:28:43;8.10;;;2.10;;
34695;SDS011;75243;51.138;17.370;2024-01-27T06:31:44;13.20;;;2.50;;
34695;SDS011;75243;51.138;17.370;2024-01-27T06:34:45;11.80;;;2.30;;
34695;SDS011;75243;51.138;17.370;2024-01-27T06:37:46;11.80;;;3.00;;
34695;SDS011;75243;51.138;17.370;2024-01-27T06:40:47;8.50;;;2.70;;
34695;SDS011;75243;51.138;17.370;2024-01-27T06:46:48;16.60;;;3.70;;
34695;SDS011;75243;51.138;17.370;2024-01-27T06:49:50;10.40;;;2.50;;
34695;SDS011;75243;51.138;17.370;2024-01-27T06:52:51;14.60;;;3.20;;
34695;SDS011;75243;51.138;17.370;2024-01-27T06:56:17;11.00;;;2.80;;
34695;SDS011;75243;51.138;17.370;2024-01-27T07:02:24;11.90;;;2.90;;
34695;SDS011;75243;51.138;17.370;2024-01-27T07:05:29;11.60;;;2.90;;
34695;SDS011;75243;51.138;17.370;2024-01-27T07:11:30;9.20;;;2.20;;
34695;SDS011;75243;51.138;17.370;2024-01-27T07:14:31;7.40;;;2.60;;
34695;SDS011;75243;51.138;17.370;2024-01-27T07:20:32;15.10;;;3.00;;
34695;SDS011;75243;51.138;17.370;2024-01-27T07:23:35;13.50;;;2.70;;
34695;SDS011;75243;51.138;17.370;2024-01-27T07:26:36;12.50;;;2.60;;
34695;SDS011;75243;51.138;17.370;2024-01-27T07:29:37;9.60;;;3.10;;
34695;SDS011;75243;51.138;17.370;2024-01-27T07:35:38;14.90;;;3.30;;
34695;SDS011;75243;51.138;17.370;2024-01-27T07:38:42;14.70;;;3.10;;
34695;SDS011;75243;51.138;17.370;2024-01-27T07:44:43;10.90;;;3.00;;
34695;SDS011;75243;51.138;17.370;2024-01-27T07:47:44;10.60;;;3.00;;
34695;SDS011;75243;51.138;17.370;2024-01-27T07:50:44;9.00;;;2.90;;
34695;SDS011;75243;51.138;17.370;2024-01-27T07:53:48;13.90;;;3.00;;
34695;SDS011;75243;51.138;17.370;2024-01-27T07:56:51;13.00;;;2.70;;
34695;SDS011;75243;51.138;17.370;2024-01-27T07:59:54;9.40;;;2.30;;
34695;SDS011;75243;51.138;17.370;2024-01-27T08:02:55;21.50;;;3.80;;
34695;SDS011;75243;51.138;17.370;2024-01-27T08:09:20;18.60;;;3.70;;
34695;SDS011;75243;51.138;17.370;2024-01-27T08:12:21;10.20;;;3.10;;
34695;SDS011;75243;51.138;17.370;2024-01-27T08:15:23;16.90;;;3.20;;
34695;SDS011;75243;51.138;17.370;2024-01-27T08:18:23;13.70;;;2.90;;
34695;SDS011;75243;51.138;17.370;2024-01-27T08:21:24;13.90;;;3.70;;
34695;SDS011;75243;51.138;17.370;2024-01-27T08:24:25;11.50;;;3.30;;
34695;SDS011;75243;51.138;17.370;2024-01-27T08:27:29;13.10;;;3.50;;
34695;SDS011;75243;51.138;17.370;2024-01-27T08:30:32;11.20;;;2.90;;
34695;SDS011;75243;51.138;17.370;2024-01-27T08:33:33;12.40;;;3.30;;
34695;SDS011;75243;51.138;17.370;2024-01-27T08:42:35;17.00;;;3.20;;
34695;SDS011;75243;51.138;17.370;2024-01-27T08:45:39;12.30;;;2.60;;
34695;SDS011;75243;51.138;17.370;2024-01-27T08:49:01;12.70;;;3.80;;
34695;SDS011;75243;51.138;17.370;2024-01-27T08:52:01;17.00;;;3.10;;
34695;SDS011;75243;51.138;17.370;2024-01-27T08:55:09;21.00;;;3.80;;
34695;SDS011;75243;51.138;17.370;2024-01-27T09:01:10;12.60;;;3.00;;
34695;SDS011;75243;51.138;17.370;2024-01-27T09:04:15;14.50;;;4.60;;
34695;SDS011;75243;51.138;17.370;2024-01-27T09:07:16;15.70;;;4.70;;
34695;SDS011;75243;51.138;17.370;2024-01-27T09:10:17;16.10;;;3.00;;
34695;SDS011;75243;51.138;17.370;2024-01-27T09:13:18;11.10;;;2.50;;
34695;SDS011;75243;51.138;17.370;2024-01-27T09:16:19;13.20;;;3.90;;
34695;SDS011;75243;51.138;17.370;2024-01-27T09:22:20;15.20;;;3.00;;
34695;SDS011;75243;51.138;17.370;2024-01-27T09:25:23;16.40;;;3.70;;
34695;SDS011;75243;51.138;17.370;2024-01-27T09:28:27;14.00;;;3.00;;
34695;SDS011;75243;51.138;17.370;2024-01-27T09:31:42;10.50;;;3.30;;
34695;SDS011;75243;51.138;17.370;2024-01-27T09:34:46;17.00;;;4.10;;
34695;SDS011;75243;51.138;17.370;2024-01-27T09:42:02;18.50;;;4.00;;
34695;SDS011;75243;51.138;17.370;2024-01-27T09:49:31;15.10;;;3.60;;
34695;SDS011;75243;51.138;17.370;2024-01-27T09:52:42;20.40;;;3.80;;
34695;SDS011;75243;51.138;17.370;2024-01-27T09:55:44;11.30;;;3.60;;
34695;SDS011;75243;51.138;17.370;2024-01-27T09:58:49;12.70;;;2.80;;
34695;SDS011;75243;51.138;17.370;2024-01-27T10:01:51;13.30;;;3.10;;
34695;SDS011;75243;51.138;17.370;2024-01-27T10:04:53;16.70;;;2.80;;
34695;SDS011;75243;51.138;17.370;2024-01-27T10:07:55;10.00;;;2.70;;
34695;SDS011;75243;51.138;17.370;2024-01-27T10:13:57;14.10;;;3.10;;
34695;SDS011;75243;51.138;17.370;2024-01-27T10:17:03;11.70;;;3.40;;
34695;SDS011;75243;51.138;17.370;2024-01-27T10:20:04;12.50;;;3.60;;
34695;SDS011;75243;51.138;17.370;2024-01-27T10:23:12;15.70;;;3.70;;
34695;SDS011;75243;51.138;17.370;2024-01-27T10:26:13;12.30;;;3.90;;
34695;SDS011;75243;51.138;17.370;2024-01-27T10:29:14;14.80;;;2.90;;
34695;SDS011;75243;51.138;17.370;2024-01-27T10:32:15;11.60;;;3.10;;
34695;SDS011;75243;51.138;17.370;2024-01-27T10:35:16;11.90;;;3.70;;
34695;SDS011;75243;51.138;17.370;2024-01-27T10:38:16;13.80;;;3.00;;
34695;SDS011;75243;51.138;17.370;2024-01-27T10:41:44;11.00;;;3.40;;
34695;SDS011;75243;51.138;17.370;2024-01-27T10:44:46;14.30;;;4.10;;
34695;SDS011;75243;51.138;17.370;2024-01-27T10:47:47;16.10;;;3.20;;
34695;SDS011;75243;51.138;17.370;2024-01-27T10:50:50;19.10;;;3.20;;
34695;SDS011;75243;51.138;17.370;2024-01-27T10:53:50;15.20;;;3.50;;
34695;SDS011;75243;51.138;17.370;2024-01-27T10:57:04;13.60;;;3.40;;
34695;SDS011;75243;51.138;17.370;2024-01-27T11:00:08;13.70;;;3.90;;
34695;SDS011;75243;51.138;17.370;2024-01-27T11:03:09;12.10;;;3.30;;
34695;SDS011;75243;51.138;17.370;2024-01-27T11:06:11;16.10;;;3.90;;
34695;SDS011;75243;51.138;17.370;2024-01-27T11:09:13;12.80;;;3.10;;
34695;SDS011;75243;51.138;17.370;2024-01-27T11:12:14;13.40;;;3.10;;
34695;SDS011;75243;51.138;17.370;2024-01-27T11:15:15;17.40;;;3.50;;
34695;SDS011;75243;51.138;17.370;2024-01-27T11:18:16;18.10;;;3.90;;
34695;SDS011;75243;51.138;17.370;2024-01-27T11:24:23;13.90;;;3.70;;
34695;SDS011;75243;51.138;17.370;2024-01-27T11:27:27;8.30;;;2.90;;
34695;SDS011;75243;51.138;17.370;2024-01-27T11:30:47;12.20;;;3.60;;
34695;SDS011;75243;51.138;17.370;2024-01-27T11:33:49;11.40;;;3.10;;
34695;SDS011;75243;51.138;17.370;2024-01-27T11:36:52;14.90;;;3.20;;
34695;SDS011;75243;51.138;17.370;2024-01-27T11:39:53;12.10;;;3.00;;
34695;SDS011;75243;51.138;17.370;2024-01-27T11:43:05;15.90;;;3.20;;
34695;SDS011;75243;51.138;17.370;2024-01-27T11:46:06;13.80;;;3.30;;
34695;SDS011;75243;51.138;17.370;2024-01-27T11:49:07;14.90;;;3.10;;
34695;SDS011;75243;51.138;17.370;2024-01-27T11:52:14;17.10;;;3.50;;
34695;SDS011;75243;51.138;17.370;2024-01-27T11:55:16;11.80;;;3.30;;
34695;SDS011;75243;51.138;17.370;2024-01-27T11:58:19;12.80;;;2.80;;
34695;SDS011;75243;51.138;17.370;2024-01-27T12:04:20;20.20;;;5.60;;
34695;SDS011;75243;51.138;17.370;2024-01-27T12:07:27;15.30;;;3.40;;
34695;SDS011;75243;51.138;17.370;2024-01-27T12:10:27;15.50;;;3.40;;
34695;SDS011;75243;51.138;17.370;2024-01-27T12:16:29;12.20;;;4.10;;
34695;SDS011;75243;51.138;17.370;2024-01-27T12:19:30;13.70;;;3.70;;
34695;SDS011;75243;51.138;17.370;2024-01-27T12:22:33;14.70;;;3.70;;
34695;SDS011;75243;51.138;17.370;2024-01-27T12:25:37;12.70;;;3.40;;
34695;SDS011;75243;51.138;17.370;2024-01-27T12:31:39;24.90;;;4.70;;
34695;SDS011;75243;51.138;17.370;2024-01-27T12:34:43;22.30;;;3.90;;
34695;SDS011;75243;51.138;17.370;2024-01-27T12:37:45;13.60;;;4.10;;
34695;SDS011;75243;51.138;17.370;2024-01-27T12:40:47;17.50;;;5.20;;
34695;SDS011;75243;51.138;17.370;2024-01-27T12:46:51;12.30;;;3.80;;
34695;SDS011;75243;51.138;17.370;2024-01-27T12:52:52;17.00;;;4.20;;
34695;SDS011;75243;51.138;17.370;2024-01-27T12:55:54;17.90;;;4.00;;
34695;SDS011;75243;51.138;17.370;2024-01-27T12:58:56;16.10;;;3.70;;
34695;SDS011;75243;51.138;17.370;2024-01-27T13:01:57;12.90;;;3.60;;
34695;SDS011;75243;51.138;17.370;2024-01-27T13:04:58;10.20;;;2.90;;
34695;SDS011;75243;51.138;17.370;2024-01-27T13:08:01;14.60;;;3.40;;
34695;SDS011;75243;51.138;17.370;2024-01-27T13:11:02;10.50;;;3.10;;
34695;SDS011;75243;51.138;17.370;2024-01-27T13:29:18;10.00;;;2.40;;
34695;SDS011;75243;51.138;17.370;2024-01-27T13:40:39;14.10;;;4.20;;
34695;SDS011;75243;51.138;17.370;2024-01-27T13:43:50;11.00;;;3.40;;
34695;SDS011;75243;51.138;17.370;2024-01-27T13:46:59;13.80;;;4.20;;
34695;SDS011;75243;51.138;17.370;2024-01-27T13:50:01;17.00;;;4.10;;
34695;SDS011;75243;51.138;17.370;2024-01-27T13:56:03;13.10;;;3.10;;
34695;SDS011;75243;51.138;17.370;2024-01-27T14:02:08;17.80;;;4.40;;
34695;SDS011;75243;51.138;17.370;2024-01-27T14:05:22;12.10;;;2.90;;
34695;SDS011;75243;51.138;17.370;2024-01-27T14:08:23;18.90;;;3.40;;
34695;SDS011;75243;51.138;17.370;2024-01-27T14:11:24;8.90;;;2.80;;
34695;SDS011;75243;51.138;17.370;2024-01-27T14:14:25;19.70;;;3.40;;
34695;SDS011;75243;51.138;17.370;2024-01-27T14:20:29;13.00;;;3.30;;
34695;SDS011;75243;51.138;17.370;2024-01-27T14:27:58;17.10;;;4.20;;
34695;SDS011;75243;51.138;17.370;2024-01-27T14:31:33;12.10;;;3.20;;
34695;SDS011;75243;51.138;17.370;2024-01-27T14:43:48;13.50;;;3.50;;
34695;SDS011;75243;51.138;17.370;2024-01-27T14:46:51;8.80;;;3.10;;
34695;SDS011;75243;51.138;17.370;2024-01-27T14:52:52;13.70;;;3.80;;
34695;SDS011;75243;51.138;17.370;2024-01-27T15:01:55;11.60;;;3.40;;
34695;SDS011;75243;51.138;17.370;2024-01-27T15:04:59;17.00;;;3.50;;
34695;SDS011;75243;51.138;17.370;2024-01-27T15:08:00;17.20;;;4.40;;
34695;SDS011;75243;51.138;17.370;2024-01-27T15:11:06;13.10;;;3.90;;
34695;SDS011;75243;51.138;17.370;2024-01-27T15:14:15;15.60;;;4.70;;
34695;SDS011;75243;51.138;17.370;2024-01-27T15:17:17;18.30;;;4.30;;
34695;SDS011;75243;51.138;17.370;2024-01-27T15:20:26;13.20;;;4.50;;
34695;SDS011;75243;51.138;17.370;2024-01-27T15:23:30;17.40;;;3.80;;
34695;SDS011;75243;51.138;17.370;2024-01-27T15:26:33;16.20;;;3.70;;
34695;SDS011;75243;51.138;17.370;2024-01-27T15:29:34;12.90;;;3.30;;
34695;SDS011;75243;51.138;17.370;2024-01-27T15:38:39;16.20;;;3.90;;
34695;SDS011;75243;51.138;17.370;2024-01-27T15:41:40;15.50;;;4.50;;
34695;SDS011;75243;51.138;17.370;2024-01-27T15:47:47;17.90;;;4.50;;
34695;SDS011;75243;51.138;17.370;2024-01-27T15:50:48;15.50;;;3.90;;
34695;SDS011;75243;51.138;17.370;2024-01-27T15:53:49;22.80;;;4.70;;
34695;SDS011;75243;51.138;17.370;2024-01-27T15:59:52;22.60;;;7.30;;
34695;SDS011;75243;51.138;17.370;2024-01-27T16:02:55;17.60;;;6.90;;
34695;SDS011;75243;51.138;17.370;2024-01-27T16:05:59;15.20;;;5.70;;
34695;SDS011;75243;51.138;17.370;2024-01-27T16:09:02;20.50;;;5.20;;
34695;SDS011;75243;51.138;17.370;2024-01-27T16:12:04;14.60;;;4.10;;
34695;SDS011;75243;51.138;17.370;2024-01-27T16:15:10;22.20;;;5.30;;
34695;SDS011;75243;51.138;17.370;2024-01-27T16:18:17;21.90;;;5.20;;
34695;SDS011;75243;51.138;17.370;2024-01-27T16:21:18;14.80;;;4.70;;
34695;SDS011;75243;51.138;17.370;2024-01-27T16:24:18;20.20;;;6.20;;
34695;SDS011;75243;51.138;17.370;2024-01-27T16:27:22;17.70;;;5.70;;
34695;SDS011;75243;51.138;17.370;2024-01-27T16:30:26;18.50;;;5.40;;
34695;SDS011;75243;51.138;17.370;2024-01-27T16:33:30;24.90;;;5.90;;
34695;SDS011;75243;51.138;17.370;2024-01-27T16:36:31;23.00;;;6.30;;
34695;SDS011;75243;51.138;17.370;2024-01-27T16:39:32;17.60;;;5.50;;
34695;SDS011;75243;51.138;17.370;2024-01-27T16:45:35;22.80;;;5.70;;
34695;SDS011;75243;51.138;17.370;2024-01-27T16:48:35;14.90;;;4.50;;
34695;SDS011;75243;51.138;17.370;2024-01-27T16:51:36;17.80;;;4.40;;
34695;SDS011;75243;51.138;17.370;2024-01-27T16:54:39;17.10;;;4.90;;
34695;SDS011;75243;51.138;17.370;2024-01-27T16:57:43;10.10;;;3.70;;
34695;SDS011;75243;51.138;17.370;2024-01-27T17:00:46;18.00;;;4.60;;
34695;SDS011;75243;51.138;17.370;2024-01-27T17:03:50;19.00;;;5.50;;
34695;SDS011;75243;51.138;17.370;2024-01-27T17:06:51;22.70;;;5.40;;
34695;SDS011;75243;51.138;17.370;2024-01-27T17:09:55;17.70;;;5.40;;
34695;SDS011;75243;51.138;17.370;2024-01-27T17:12:58;17.60;;;4.80;;
34695;SDS011;75243;51.138;17.370;2024-01-27T17:15:59;16.20;;;4.90;;
34695;SDS011;75243;51.138;17.370;2024-01-27T17:19:02;14.70;;;5.20;;
34695;SDS011;75243;51.138;17.370;2024-01-27T17:22:06;21.60;;;5.70;;
34695;SDS011;75243;51.138;17.370;2024-01-27T17:25:07;22.70;;;6.40;;
34695;SDS011;75243;51.138;17.370;2024-01-27T17:28:09;22.00;;;5.30;;
34695;SDS011;75243;51.138;17.370;2024-01-27T17:31:15;24.20;;;5.40;;
34695;SDS011;75243;51.138;17.370;2024-01-27T17:34:15;15.70;;;5.20;;
34695;SDS011;75243;51.138;17.370;2024-01-27T17:37:17;17.10;;;4.70;;
34695;SDS011;75243;51.138;17.370;2024-01-27T17:40:19;19.80;;;5.50;;
34695;SDS011;75243;51.138;17.370;2024-01-27T17:43:26;20.20;;;6.10;;
34695;SDS011;75243;51.138;17.370;2024-01-27T17:46:26;15.00;;;4.60;;
34695;SDS011;75243;51.138;17.370;2024-01-27T17:49:32;21.40;;;6.30;;
34695;SDS011;75243;51.138;17.370;2024-01-27T17:52:33;24.40;;;7.00;;
34695;SDS011;75243;51.138;17.370;2024-01-27T17:55:39;25.70;;;7.20;;
34695;SDS011;75243;51.138;17.370;2024-01-27T17:58:39;18.40;;;5.90;;
34695;SDS011;75243;51.138;17.370;2024-01-27T18:01:41;22.20;;;5.90;;
34695;SDS011;75243;51.138;17.370;2024-01-27T18:04:41;20.40;;;6.50;;
34695;SDS011;75243;51.138;17.370;2024-01-27T18:07:42;25.10;;;7.40;;
34695;SDS011;75243;51.138;17.370;2024-01-27T18:13:44;17.50;;;5.70;;
34695;SDS011;75243;51.138;17.370;2024-01-27T18:16:47;17.80;;;7.10;;
34695;SDS011;75243;51.138;17.370;2024-01-27T18:19:50;25.20;;;7.30;;
34695;SDS011;75243;51.138;17.370;2024-01-27T18:25:52;23.30;;;6.50;;
34695;SDS011;75243;51.138;17.370;2024-01-27T18:31:56;27.40;;;8.20;;
34695;SDS011;75243;51.138;17.370;2024-01-27T18:34:58;23.70;;;6.80;;
34695;SDS011;75243;51.138;17.370;2024-01-27T18:38:02;13.70;;;6.40;;
34695;SDS011;75243;51.138;17.370;2024-01-27T18:44:07;23.00;;;7.00;;
34695;SDS011;75243;51.138;17.370;2024-01-27T18:47:10;26.40;;;7.00;;
34695;SDS011;75243;51.138;17.370;2024-01-27T18:50:13;21.30;;;5.80;;
34695;SDS011;75243;51.138;17.370;2024-01-27T18:56:15;21.30;;;5.40;;
34695;SDS011;75243;51.138;17.370;2024-01-27T18:59:19;19.90;;;5.90;;
34695;SDS011;75243;51.138;17.370;2024-01-27T19:02:22;15.50;;;5.20;;
34695;SDS011;75243;51.138;17.370;2024-01-27T19:05:23;21.10;;;6.20;;
34695;SDS011;75243;51.138;17.370;2024-01-27T19:08:25;19.70;;;6.60;;
34695;SDS011;75243;51.138;17.370;2024-01-27T19:14:27;22.50;;;5.90;;
34695;SDS011;75243;51.138;17.370;2024-01-27T19:17:28;21.30;;;6.40;;
34695;SDS011;75243;51.138;17.370;2024-01-27T19:23:50;21.20;;;6.90;;
34695;SDS011;75243;51.138;17.370;2024-01-27T19:26:51;26.40;;;7.40;;
34695;SDS011;75243;51.138;17.370;2024-01-27T19:29:52;29.50;;;7.90;;
34695;SDS011;75243;51.138;17.370;2024-01-27T19:32:54;26.80;;;6.70;;
34695;SDS011;75243;51.138;17.370;2024-01-27T19:35:54;20.40;;;6.50;;
34695;SDS011;75243;51.138;17.370;2024-01-27T19:38:55;21.20;;;8.10;;
34695;SDS011;75243;51.138;17.370;2024-01-27T19:41:56;24.80;;;7.80;;
34695;SDS011;75243;51.138;17.370;2024-01-27T19:48:01;23.60;;;7.50;;
34695;SDS011;75243;51.138;17.370;2024-01-27T19:54:05;24.00;;;6.90;;
34695;SDS011;75243;51.138;17.370;2024-01-27T19:57:06;24.70;;;8.20;;
34695;SDS011;75243;51.138;17.370;2024-01-27T20:03:09;26.40;;;7.30;;
34695;SDS011;75243;51.138;17.370;2024-01-27T20:06:09;24.00;;;7.20;;
34695;SDS011;75243;51.138;17.370;2024-01-27T20:09:11;21.40;;;6.40;;
34695;SDS011;75243;51.138;17.370;2024-01-27T20:12:14;14.60;;;5.20;;
34695;SDS011;75243;51.138;17.370;2024-01-27T20:15:15;21.90;;;5.40;;
34695;SDS011;75243;51.138;17.370;2024-01-27T20:18:16;19.50;;;5.70;;
34695;SDS011;75243;51.138;17.370;2024-01-27T20:21:21;18.50;;;6.00;;
34695;SDS011;75243;51.138;17.370;2024-01-27T20:24:26;20.50;;;6.40;;
34695;SDS011;75243;51.138;17.370;2024-01-27T20:27:26;21.00;;;6.00;;
34695;SDS011;75243;51.138;17.370;2024-01-27T20:30:27;18.50;;;5.40;;
34695;SDS011;75243;51.138;17.370;2024-01-27T20:36:29;21.00;;;5.70;;
34695;SDS011;75243;51.138;17.370;2024-01-27T20:39:29;13.70;;;4.90;;
34695;SDS011;75243;51.138;17.370;2024-01-27T20:42:33;15.20;;;5.50;;
34695;SDS011;75243;51.138;17.370;2024-01-27T20:45:34;12.90;;;5.00;;
34695;SDS011;75243;51.138;17.370;2024-01-27T20:48:35;18.60;;;5.60;;
34695;SDS011;75243;51.138;17.370;2024-01-27T20:51:36;23.60;;;5.70;;
34695;SDS011;75243;51.138;17.370;2024-01-27T20:54:39;25.00;;;7.20;;
34695;SDS011;75243;51.138;17.370;2024-01-27T21:00:40;21.40;;;6.30;;
34695;SDS011;75243;51.138;17.370;2024-01-27T21:03:44;21.20;;;5.70;;
34695;SDS011;75243;51.138;17.370;2024-01-27T21:06:46;22.00;;;6.30;;
34695;SDS011;75243;51.138;17.370;2024-01-27T21:09:47;20.40;;;5.40;;
34695;SDS011;75243;51.138;17.370;2024-01-27T21:15:49;16.80;;;4.20;;
34695;SDS011;75243;51.138;17.370;2024-01-27T21:18:52;15.30;;;4.90;;
34695;SDS011;75243;51.138;17.370;2024-01-27T21:21:53;14.80;;;4.40;;
34695;SDS011;75243;51.138;17.370;2024-01-27T21:24:54;17.30;;;4.90;;
34695;SDS011;75243;51.138;17.370;2024-01-27T21:27:55;17.80;;;4.60;;
34695;SDS011;75243;51.138;17.370;2024-01-27T21:33:56;18.00;;;4.80;;
34695;SDS011;75243;51.138;17.370;2024-01-27T21:39:58;18.40;;;5.10;;
34695;SDS011;75243;51.138;17.370;2024-01-27T21:43:05;17.50;;;4.20;;
34695;SDS011;75243;51.138;17.370;2024-01-27T21:46:17;14.10;;;4.50;;
34695;SDS011;75243;51.138;17.370;2024-01-27T21:49:18;17.30;;;4.30;;
34695;SDS011;75243;51.138;17.370;2024-01-27T21:52:18;16.10;;;4.80;;
34695;SDS011;75243;51.138;17.370;2024-01-27T21:58:20;17.40;;;5.50;;
34695;SDS011;75243;51.138;17.370;2024-01-27T22:01:21;14.00;;;4.10;;
34695;SDS011;75243;51.138;17.370;2024-01-27T22:04:24;19.80;;;4.40;;
34695;SDS011;75243;51.138;17.370;2024-01-27T22:07:24;16.50;;;4.50;;
34695;SDS011;75243;51.138;17.370;2024-01-27T22:10:25;16.50;;;4.50;;
34695;SDS011;75243;51.138;17.370;2024-01-27T22:13:29;15.40;;;4.60;;
34695;SDS011;75243;51.138;17.370;2024-01-27T22:16:32;15.30;;;4.80;;